sensor_id;sensor_type;location;lat;lon;timestamp;P1;durP1;ratioP1;P2;durP2;ratioP2
40252;SDS011;25972;51.854;4.534;2023-04-25T00:02:06;5.60;;;1.70;;
40252;SDS011;25972;51.854;4.534;2023-04-25T00:04:33;3.97;;;1.38;;
40252;SDS011;25972;51.854;4.534;2023-04-25T00:06:59;3.92;;;1.42;;
40252;SDS011;25972;51.854;4.534;2023-04-25T00:09:28;3.88;;;1.27;;
40252;SDS011;25972;51.854;4.534;2023-04-25T00:11:54;5.00;;;1.20;;
40252;SDS011;25972;51.854;4.534;2023-04-25T00:14:20;4.72;;;1.30;;
40252;SDS011;25972;51.854;4.534;2023-04-25T00:16:46;4.47;;;1.85;;
40252;SDS011;25972;51.854;4.534;2023-04-25T00:19:13;2.15;;;1.00;;
40252;SDS011;25972;51.854;4.534;2023-04-25T00:21:39;6.65;;;1.83;;
40252;SDS011;25972;51.854;4.534;2023-04-25T00:24:08;4.40;;;1.80;;
40252;SDS011;25972;51.854;4.534;2023-04-25T00:26:34;4.70;;;1.65;;
40252;SDS011;25972;51.854;4.534;2023-04-25T00:29:01;6.15;;;1.10;;
40252;SDS011;25972;51.854;4.534;2023-04-25T00:31:27;1.35;;;1.02;;
40252;SDS011;25972;51.854;4.534;2023-04-25T00:33:54;2.72;;;1.15;;
40252;SDS011;25972;51.854;4.534;2023-04-25T00:36:20;4.85;;;1.30;;
40252;SDS011;25972;51.854;4.534;2023-04-25T00:38:46;1.75;;;1.05;;
40252;SDS011;25972;51.854;4.534;2023-04-25T00:41:12;4.60;;;1.30;;
40252;SDS011;25972;51.854;4.534;2023-04-25T00:43:38;3.25;;;1.30;;
40252;SDS011;25972;51.854;4.534;2023-04-25T00:46:05;4.75;;;1.40;;
40252;SDS011;25972;51.854;4.534;2023-04-25T00:48:31;6.68;;;1.10;;
40252;SDS011;25972;51.854;4.534;2023-04-25T00:50:57;4.13;;;1.30;;
40252;SDS011;25972;51.854;4.534;2023-04-25T00:53:24;1.13;;;1.02;;
40252;SDS011;25972;51.854;4.534;2023-04-25T00:55:51;6.03;;;1.45;;
40252;SDS011;25972;51.854;4.534;2023-04-25T00:58:18;3.88;;;1.45;;
40252;SDS011;25972;51.854;4.534;2023-04-25T01:00:46;7.22;;;1.10;;
40252;SDS011;25972;51.854;4.534;2023-04-25T01:03:13;2.40;;;1.08;;
40252;SDS011;25972;51.854;4.534;2023-04-25T01:05:41;4.88;;;1.20;;
40252;SDS011;25972;51.854;4.534;2023-04-25T01:08:08;3.63;;;1.17;;
40252;SDS011;25972;51.854;4.534;2023-04-25T01:10:35;5.80;;;1.40;;
40252;SDS011;25972;51.854;4.534;2023-04-25T01:13:01;2.67;;;1.05;;
40252;SDS011;25972;51.854;4.534;2023-04-25T01:15:28;3.63;;;1.35;;
40252;SDS011;25972;51.854;4.534;2023-04-25T01:17:54;2.35;;;1.08;;
40252;SDS011;25972;51.854;4.534;2023-04-25T01:20:21;2.42;;;1.27;;
40252;SDS011;25972;51.854;4.534;2023-04-25T01:22:52;4.97;;;1.45;;
40252;SDS011;25972;51.854;4.534;2023-04-25T01:25:18;1.65;;;0.80;;
40252;SDS011;25972;51.854;4.534;2023-04-25T01:27:46;3.50;;;1.17;;
40252;SDS011;25972;51.854;4.534;2023-04-25T01:30:12;7.55;;;1.48;;
40252;SDS011;25972;51.854;4.534;2023-04-25T01:32:40;6.10;;;1.75;;
40252;SDS011;25972;51.854;4.534;2023-04-25T01:35:08;5.03;;;1.25;;
40252;SDS011;25972;51.854;4.534;2023-04-25T01:37:42;4.53;;;1.05;;
40252;SDS011;25972;51.854;4.534;2023-04-25T01:40:11;8.77;;;1.63;;
40252;SDS011;25972;51.854;4.534;2023-04-25T01:42:38;2.95;;;1.00;;
40252;SDS011;25972;51.854;4.534;2023-04-25T01:45:07;1.88;;;1.10;;
40252;SDS011;25972;51.854;4.534;2023-04-25T01:47:33;2.13;;;0.77;;
40252;SDS011;25972;51.854;4.534;2023-04-25T01:50:03;5.28;;;1.10;;
40252;SDS011;25972;51.854;4.534;2023-04-25T01:52:30;3.35;;;0.98;;
40252;SDS011;25972;51.854;4.534;2023-04-25T01:54:57;3.15;;;1.40;;
40252;SDS011;25972;51.854;4.534;2023-04-25T01:57:27;3.47;;;1.08;;
40252;SDS011;25972;51.854;4.534;2023-04-25T02:00:00;6.03;;;1.25;;
40252;SDS011;25972;51.854;4.534;2023-04-25T02:02:40;4.32;;;1.20;;
40252;SDS011;25972;51.854;4.534;2023-04-25T02:05:33;6.80;;;1.05;;
40252;SDS011;25972;51.854;4.534;2023-04-25T02:08:01;2.03;;;1.30;;
40252;SDS011;25972;51.854;4.534;2023-04-25T02:10:27;2.95;;;1.10;;
40252;SDS011;25972;51.854;4.534;2023-04-25T02:13:03;4.85;;;1.10;;
40252;SDS011;25972;51.854;4.534;2023-04-25T02:15:45;1.73;;;0.93;;
40252;SDS011;25972;51.854;4.534;2023-04-25T02:18:15;3.13;;;1.10;;
40252;SDS011;25972;51.854;4.534;2023-04-25T02:20:43;3.33;;;1.38;;
40252;SDS011;25972;51.854;4.534;2023-04-25T02:23:10;3.50;;;1.17;;
40252;SDS011;25972;51.854;4.534;2023-04-25T02:25:36;7.00;;;1.48;;
40252;SDS011;25972;51.854;4.534;2023-04-25T02:28:03;6.32;;;1.13;;
40252;SDS011;25972;51.854;4.534;2023-04-25T02:30:29;6.68;;;1.30;;
40252;SDS011;25972;51.854;4.534;2023-04-25T02:32:55;1.55;;;0.82;;
40252;SDS011;25972;51.854;4.534;2023-04-25T02:35:21;1.60;;;1.00;;
40252;SDS011;25972;51.854;4.534;2023-04-25T02:37:47;6.60;;;1.15;;
40252;SDS011;25972;51.854;4.534;2023-04-25T02:40:13;5.80;;;1.20;;
40252;SDS011;25972;51.854;4.534;2023-04-25T02:42:38;2.25;;;1.08;;
40252;SDS011;25972;51.854;4.534;2023-04-25T02:45:04;4.28;;;1.00;;
40252;SDS011;25972;51.854;4.534;2023-04-25T02:47:31;2.97;;;1.20;;
40252;SDS011;25972;51.854;4.534;2023-04-25T02:49:56;3.03;;;1.02;;
40252;SDS011;25972;51.854;4.534;2023-04-25T02:52:22;4.68;;;1.20;;
40252;SDS011;25972;51.854;4.534;2023-04-25T02:54:56;1.73;;;1.02;;
40252;SDS011;25972;51.854;4.534;2023-04-25T02:57:22;2.15;;;0.70;;
40252;SDS011;25972;51.854;4.534;2023-04-25T02:59:48;1.23;;;0.82;;
40252;SDS011;25972;51.854;4.534;2023-04-25T03:02:13;1.98;;;0.68;;
40252;SDS011;25972;51.854;4.534;2023-04-25T03:04:39;3.80;;;1.25;;
40252;SDS011;25972;51.854;4.534;2023-04-25T03:07:05;1.73;;;0.73;;
40252;SDS011;25972;51.854;4.534;2023-04-25T03:09:31;3.28;;;0.95;;
40252;SDS011;25972;51.854;4.534;2023-04-25T03:11:57;2.88;;;0.80;;
40252;SDS011;25972;51.854;4.534;2023-04-25T03:14:23;1.30;;;0.82;;
40252;SDS011;25972;51.854;4.534;2023-04-25T03:16:49;5.57;;;1.33;;
40252;SDS011;25972;51.854;4.534;2023-04-25T03:19:16;1.08;;;0.68;;
40252;SDS011;25972;51.854;4.534;2023-04-25T03:21:42;1.73;;;1.10;;
40252;SDS011;25972;51.854;4.534;2023-04-25T03:24:08;1.45;;;1.02;;
40252;SDS011;25972;51.854;4.534;2023-04-25T03:26:36;3.22;;;1.42;;
40252;SDS011;25972;51.854;4.534;2023-04-25T03:29:02;3.63;;;1.30;;
40252;SDS011;25972;51.854;4.534;2023-04-25T03:31:28;2.25;;;0.90;;
40252;SDS011;25972;51.854;4.534;2023-04-25T03:33:53;1.67;;;0.80;;
40252;SDS011;25972;51.854;4.534;2023-04-25T03:36:21;2.03;;;0.95;;
40252;SDS011;25972;51.854;4.534;2023-04-25T03:38:47;2.17;;;1.00;;
40252;SDS011;25972;51.854;4.534;2023-04-25T03:41:15;3.33;;;1.20;;
40252;SDS011;25972;51.854;4.534;2023-04-25T03:43:47;1.33;;;0.93;;
40252;SDS011;25972;51.854;4.534;2023-04-25T03:46:15;2.30;;;1.08;;
40252;SDS011;25972;51.854;4.534;2023-04-25T03:48:41;1.80;;;0.90;;
40252;SDS011;25972;51.854;4.534;2023-04-25T03:51:09;2.90;;;1.05;;
40252;SDS011;25972;51.854;4.534;2023-04-25T03:53:38;2.03;;;1.10;;
40252;SDS011;25972;51.854;4.534;2023-04-25T03:56:36;3.67;;;0.98;;
40252;SDS011;25972;51.854;4.534;2023-04-25T03:59:12;1.27;;;1.00;;
40252;SDS011;25972;51.854;4.534;2023-04-25T04:01:38;1.92;;;1.20;;
40252;SDS011;25972;51.854;4.534;2023-04-25T04:04:04;0.90;;;0.70;;
40252;SDS011;25972;51.854;4.534;2023-04-25T04:06:30;3.60;;;1.08;;
40252;SDS011;25972;51.854;4.534;2023-04-25T04:09:05;4.07;;;1.40;;
40252;SDS011;25972;51.854;4.534;2023-04-25T04:11:39;1.95;;;0.80;;
40252;SDS011;25972;51.854;4.534;2023-04-25T04:14:06;2.33;;;0.90;;
40252;SDS011;25972;51.854;4.534;2023-04-25T04:16:32;2.38;;;1.00;;
40252;SDS011;25972;51.854;4.534;2023-04-25T04:18:58;3.33;;;1.27;;
40252;SDS011;25972;51.854;4.534;2023-04-25T04:21:24;2.40;;;0.98;;
40252;SDS011;25972;51.854;4.534;2023-04-25T04:23:52;1.42;;;1.05;;
40252;SDS011;25972;51.854;4.534;2023-04-25T04:26:20;2.92;;;1.35;;
40252;SDS011;25972;51.854;4.534;2023-04-25T04:29:05;3.85;;;1.08;;
40252;SDS011;25972;51.854;4.534;2023-04-25T04:31:51;2.13;;;1.13;;
40252;SDS011;25972;51.854;4.534;2023-04-25T04:34:17;3.63;;;1.25;;
40252;SDS011;25972;51.854;4.534;2023-04-25T04:36:44;2.85;;;0.98;;
40252;SDS011;25972;51.854;4.534;2023-04-25T04:39:13;2.25;;;1.02;;
40252;SDS011;25972;51.854;4.534;2023-04-25T04:41:58;1.17;;;1.00;;
40252;SDS011;25972;51.854;4.534;2023-04-25T04:44:47;3.42;;;1.33;;
40252;SDS011;25972;51.854;4.534;2023-04-25T04:47:25;1.52;;;0.90;;
40252;SDS011;25972;51.854;4.534;2023-04-25T04:50:16;2.70;;;1.10;;
40252;SDS011;25972;51.854;4.534;2023-04-25T04:53:05;2.95;;;1.15;;
40252;SDS011;25972;51.854;4.534;2023-04-25T04:55:54;2.28;;;1.10;;
40252;SDS011;25972;51.854;4.534;2023-04-25T04:58:39;5.75;;;1.25;;
40252;SDS011;25972;51.854;4.534;2023-04-25T05:01:18;2.42;;;0.95;;
40252;SDS011;25972;51.854;4.534;2023-04-25T05:03:56;3.92;;;1.15;;
40252;SDS011;25972;51.854;4.534;2023-04-25T05:06:45;4.13;;;1.05;;
40252;SDS011;25972;51.854;4.534;2023-04-25T05:09:14;1.52;;;1.00;;
40252;SDS011;25972;51.854;4.534;2023-04-25T05:11:58;4.40;;;1.00;;
40252;SDS011;25972;51.854;4.534;2023-04-25T05:14:49;2.88;;;1.00;;
40252;SDS011;25972;51.854;4.534;2023-04-25T05:17:47;5.65;;;1.30;;
40252;SDS011;25972;51.854;4.534;2023-04-25T05:20:22;1.88;;;0.88;;
40252;SDS011;25972;51.854;4.534;2023-04-25T05:23:14;2.10;;;1.10;;
40252;SDS011;25972;51.854;4.534;2023-04-25T05:25:40;4.85;;;1.13;;
40252;SDS011;25972;51.854;4.534;2023-04-25T05:28:25;1.63;;;1.02;;
40252;SDS011;25972;51.854;4.534;2023-04-25T05:31:17;1.52;;;0.88;;
40252;SDS011;25972;51.854;4.534;2023-04-25T05:33:58;4.43;;;1.05;;
40252;SDS011;25972;51.854;4.534;2023-04-25T05:36:34;3.40;;;1.17;;
40252;SDS011;25972;51.854;4.534;2023-04-25T05:38:59;1.00;;;0.55;;
40252;SDS011;25972;51.854;4.534;2023-04-25T05:41:45;2.38;;;1.00;;
40252;SDS011;25972;51.854;4.534;2023-04-25T05:44:44;2.95;;;0.90;;
40252;SDS011;25972;51.854;4.534;2023-04-25T05:47:25;3.50;;;1.00;;
40252;SDS011;25972;51.854;4.534;2023-04-25T05:50:03;4.63;;;1.23;;
40252;SDS011;25972;51.854;4.534;2023-04-25T05:52:50;2.45;;;1.00;;
40252;SDS011;25972;51.854;4.534;2023-04-25T05:55:23;2.25;;;1.02;;
40252;SDS011;25972;51.854;4.534;2023-04-25T06:01:44;5.95;;;1.35;;
40252;SDS011;25972;51.854;4.534;2023-04-25T06:04:11;5.35;;;1.25;;
40252;SDS011;25972;51.854;4.534;2023-04-25T06:06:37;3.75;;;1.10;;
40252;SDS011;25972;51.854;4.534;2023-04-25T06:09:03;3.72;;;1.33;;
40252;SDS011;25972;51.854;4.534;2023-04-25T06:11:30;1.75;;;0.80;;
40252;SDS011;25972;51.854;4.534;2023-04-25T06:13:56;2.70;;;1.00;;
40252;SDS011;25972;51.854;4.534;2023-04-25T06:16:22;2.88;;;0.80;;
40252;SDS011;25972;51.854;4.534;2023-04-25T06:18:49;2.55;;;1.00;;
40252;SDS011;25972;51.854;4.534;2023-04-25T06:21:15;0.55;;;0.50;;
40252;SDS011;25972;51.854;4.534;2023-04-25T06:23:41;1.63;;;0.70;;
40252;SDS011;25972;51.854;4.534;2023-04-25T06:26:10;4.28;;;1.02;;
40252;SDS011;25972;51.854;4.534;2023-04-25T06:28:38;0.65;;;0.52;;
40252;SDS011;25972;51.854;4.534;2023-04-25T06:31:04;2.17;;;0.55;;
40252;SDS011;25972;51.854;4.534;2023-04-25T06:33:30;0.20;;;0.20;;
40252;SDS011;25972;51.854;4.534;2023-04-25T06:35:56;0.88;;;0.70;;
40252;SDS011;25972;51.854;4.534;2023-04-25T06:38:25;1.05;;;0.70;;
40252;SDS011;25972;51.854;4.534;2023-04-25T06:40:53;1.27;;;0.60;;
40252;SDS011;25972;51.854;4.534;2023-04-25T06:43:19;1.50;;;0.80;;
40252;SDS011;25972;51.854;4.534;2023-04-25T06:46:07;1.10;;;0.65;;
40252;SDS011;25972;51.854;4.534;2023-04-25T06:48:40;3.08;;;0.63;;
40252;SDS011;25972;51.854;4.534;2023-04-25T06:51:06;0.73;;;0.55;;
40252;SDS011;25972;51.854;4.534;2023-04-25T06:53:33;1.17;;;0.88;;
40252;SDS011;25972;51.854;4.534;2023-04-25T06:56:02;1.30;;;0.52;;
40252;SDS011;25972;51.854;4.534;2023-04-25T06:58:54;0.93;;;0.55;;
40252;SDS011;25972;51.854;4.534;2023-04-25T07:01:28;1.67;;;0.40;;
40252;SDS011;25972;51.854;4.534;2023-04-25T07:03:54;2.80;;;0.80;;
40252;SDS011;25972;51.854;4.534;2023-04-25T07:06:21;0.57;;;0.50;;
40252;SDS011;25972;51.854;4.534;2023-04-25T07:08:47;2.95;;;0.60;;
40252;SDS011;25972;51.854;4.534;2023-04-25T07:11:13;2.17;;;0.77;;
40252;SDS011;25972;51.854;4.534;2023-04-25T07:13:39;1.75;;;0.75;;
40252;SDS011;25972;51.854;4.534;2023-04-25T07:16:05;1.23;;;0.68;;
40252;SDS011;25972;51.854;4.534;2023-04-25T07:18:33;3.40;;;0.70;;
40252;SDS011;25972;51.854;4.534;2023-04-25T07:20:59;2.88;;;0.77;;
40252;SDS011;25972;51.854;4.534;2023-04-25T07:23:26;2.28;;;0.77;;
40252;SDS011;25972;51.854;4.534;2023-04-25T07:25:52;0.52;;;0.50;;
40252;SDS011;25972;51.854;4.534;2023-04-25T07:28:20;6.35;;;0.77;;
40252;SDS011;25972;51.854;4.534;2023-04-25T07:30:46;1.58;;;0.88;;
40252;SDS011;25972;51.854;4.534;2023-04-25T07:33:12;1.05;;;0.55;;
40252;SDS011;25972;51.854;4.534;2023-04-25T07:35:38;0.93;;;0.45;;
40252;SDS011;25972;51.854;4.534;2023-04-25T07:38:05;3.28;;;0.70;;
40252;SDS011;25972;51.854;4.534;2023-04-25T07:40:32;1.98;;;0.65;;
40252;SDS011;25972;51.854;4.534;2023-04-25T07:43:04;1.90;;;0.93;;
40252;SDS011;25972;51.854;4.534;2023-04-25T07:45:40;3.40;;;0.63;;
40252;SDS011;25972;51.854;4.534;2023-04-25T07:48:07;1.67;;;0.60;;
40252;SDS011;25972;51.854;4.534;2023-04-25T07:50:36;1.27;;;0.28;;
40252;SDS011;25972;51.854;4.534;2023-04-25T07:53:02;1.75;;;0.57;;
40252;SDS011;25972;51.854;4.534;2023-04-25T07:55:36;2.40;;;0.82;;
40252;SDS011;25972;51.854;4.534;2023-04-25T07:58:13;2.20;;;0.73;;
40252;SDS011;25972;51.854;4.534;2023-04-25T08:00:43;1.13;;;0.52;;
40252;SDS011;25972;51.854;4.534;2023-04-25T08:03:25;4.97;;;0.60;;
40252;SDS011;25972;51.854;4.534;2023-04-25T08:05:52;1.17;;;0.65;;
40252;SDS011;25972;51.854;4.534;2023-04-25T08:08:18;2.55;;;0.47;;
40252;SDS011;25972;51.854;4.534;2023-04-25T08:10:44;1.85;;;0.50;;
40252;SDS011;25972;51.854;4.534;2023-04-25T08:13:11;0.60;;;0.40;;
40252;SDS011;25972;51.854;4.534;2023-04-25T08:15:37;3.03;;;0.47;;
40252;SDS011;25972;51.854;4.534;2023-04-25T08:18:02;1.20;;;0.47;;
40252;SDS011;25972;51.854;4.534;2023-04-25T08:20:29;1.63;;;0.82;;
40252;SDS011;25972;51.854;4.534;2023-04-25T08:22:57;1.05;;;0.63;;
40252;SDS011;25972;51.854;4.534;2023-04-25T08:25:36;0.90;;;0.50;;
40252;SDS011;25972;51.854;4.534;2023-04-25T08:28:02;2.20;;;0.65;;
40252;SDS011;25972;51.854;4.534;2023-04-25T08:30:29;1.08;;;0.38;;
40252;SDS011;25972;51.854;4.534;2023-04-25T08:32:55;3.03;;;0.90;;
40252;SDS011;25972;51.854;4.534;2023-04-25T08:35:46;1.02;;;0.60;;
40252;SDS011;25972;51.854;4.534;2023-04-25T08:38:13;1.80;;;0.50;;
40252;SDS011;25972;51.854;4.534;2023-04-25T08:40:39;1.45;;;0.50;;
40252;SDS011;25972;51.854;4.534;2023-04-25T08:43:12;2.17;;;0.57;;
40252;SDS011;25972;51.854;4.534;2023-04-25T08:45:40;0.47;;;0.38;;
40252;SDS011;25972;51.854;4.534;2023-04-25T08:48:10;1.38;;;0.57;;
40252;SDS011;25972;51.854;4.534;2023-04-25T08:50:39;3.30;;;0.60;;
40252;SDS011;25972;51.854;4.534;2023-04-25T08:53:08;0.15;;;0.15;;
40252;SDS011;25972;51.854;4.534;2023-04-25T08:55:36;0.43;;;0.43;;
40252;SDS011;25972;51.854;4.534;2023-04-25T08:58:08;2.33;;;0.50;;
40252;SDS011;25972;51.854;4.534;2023-04-25T09:00:36;0.57;;;0.35;;
40252;SDS011;25972;51.854;4.534;2023-04-25T09:03:01;2.35;;;0.50;;
40252;SDS011;25972;51.854;4.534;2023-04-25T09:05:33;1.23;;;0.60;;
40252;SDS011;25972;51.854;4.534;2023-04-25T09:08:01;0.70;;;0.43;;
40252;SDS011;25972;51.854;4.534;2023-04-25T09:10:28;1.38;;;0.43;;
40252;SDS011;25972;51.854;4.534;2023-04-25T09:13:09;0.50;;;0.50;;
40252;SDS011;25972;51.854;4.534;2023-04-25T09:15:58;0.40;;;0.40;;
40252;SDS011;25972;51.854;4.534;2023-04-25T09:18:50;0.73;;;0.47;;
40252;SDS011;25972;51.854;4.534;2023-04-25T09:21:18;3.25;;;0.63;;
40252;SDS011;25972;51.854;4.534;2023-04-25T09:23:49;1.85;;;0.47;;
40252;SDS011;25972;51.854;4.534;2023-04-25T09:26:17;1.95;;;0.60;;
40252;SDS011;25972;51.854;4.534;2023-04-25T09:28:46;2.97;;;0.57;;
40252;SDS011;25972;51.854;4.534;2023-04-25T09:31:21;1.63;;;0.40;;
40252;SDS011;25972;51.854;4.534;2023-04-25T09:33:50;1.25;;;0.50;;
40252;SDS011;25972;51.854;4.534;2023-04-25T09:36:26;4.72;;;0.63;;
40252;SDS011;25972;51.854;4.534;2023-04-25T09:39:01;4.75;;;0.75;;
40252;SDS011;25972;51.854;4.534;2023-04-25T09:41:33;0.70;;;0.40;;
40252;SDS011;25972;51.854;4.534;2023-04-25T09:44:03;1.88;;;0.50;;
40252;SDS011;25972;51.854;4.534;2023-04-25T09:46:34;4.20;;;1.00;;
40252;SDS011;25972;51.854;4.534;2023-04-25T09:49:06;0.80;;;0.40;;
40252;SDS011;25972;51.854;4.534;2023-04-25T09:51:41;3.15;;;0.63;;
40252;SDS011;25972;51.854;4.534;2023-04-25T09:54:08;1.08;;;0.32;;
40252;SDS011;25972;51.854;4.534;2023-04-25T09:56:41;1.85;;;0.35;;
40252;SDS011;25972;51.854;4.534;2023-04-25T09:59:08;0.10;;;0.10;;
40252;SDS011;25972;51.854;4.534;2023-04-25T10:01:36;1.67;;;0.30;;
40252;SDS011;25972;51.854;4.534;2023-04-25T10:04:16;2.72;;;0.57;;
40252;SDS011;25972;51.854;4.534;2023-04-25T10:06:51;0.55;;;0.52;;
40252;SDS011;25972;51.854;4.534;2023-04-25T10:09:19;1.02;;;0.52;;
40252;SDS011;25972;51.854;4.534;2023-04-25T10:11:46;1.00;;;0.40;;
40252;SDS011;25972;51.854;4.534;2023-04-25T10:14:16;2.42;;;0.60;;
40252;SDS011;25972;51.854;4.534;2023-04-25T10:16:43;0.55;;;0.38;;
40252;SDS011;25972;51.854;4.534;2023-04-25T10:19:10;2.05;;;0.60;;
40252;SDS011;25972;51.854;4.534;2023-04-25T10:21:37;1.15;;;0.50;;
40252;SDS011;25972;51.854;4.534;2023-04-25T10:24:11;1.40;;;0.50;;
40252;SDS011;25972;51.854;4.534;2023-04-25T10:26:37;1.95;;;0.40;;
40252;SDS011;25972;51.854;4.534;2023-04-25T10:29:04;1.48;;;0.45;;
40252;SDS011;25972;51.854;4.534;2023-04-25T10:31:30;0.65;;;0.30;;
40252;SDS011;25972;51.854;4.534;2023-04-25T10:33:56;0.82;;;0.30;;
40252;SDS011;25972;51.854;4.534;2023-04-25T10:36:24;0.75;;;0.45;;
40252;SDS011;25972;51.854;4.534;2023-04-25T10:38:52;3.47;;;0.63;;
40252;SDS011;25972;51.854;4.534;2023-04-25T10:41:18;1.10;;;0.50;;
40252;SDS011;25972;51.854;4.534;2023-04-25T10:43:47;2.28;;;0.60;;
40252;SDS011;25972;51.854;4.534;2023-04-25T10:46:17;0.57;;;0.30;;
40252;SDS011;25972;51.854;4.534;2023-04-25T10:48:48;2.30;;;0.45;;
40252;SDS011;25972;51.854;4.534;2023-04-25T10:51:19;1.45;;;0.55;;
40252;SDS011;25972;51.854;4.534;2023-04-25T10:56:30;0.55;;;0.30;;
40252;SDS011;25972;51.854;4.534;2023-04-25T11:01:45;0.45;;;0.25;;
40252;SDS011;25972;51.854;4.534;2023-04-25T11:04:22;0.93;;;0.50;;
40252;SDS011;25972;51.854;4.534;2023-04-25T11:06:55;1.13;;;0.55;;
40252;SDS011;25972;51.854;4.534;2023-04-25T11:09:24;1.30;;;0.73;;
40252;SDS011;25972;51.854;4.534;2023-04-25T11:11:56;2.50;;;0.60;;
40252;SDS011;25972;51.854;4.534;2023-04-25T11:14:23;2.35;;;0.65;;
40252;SDS011;25972;51.854;4.534;2023-04-25T11:16:53;1.83;;;0.52;;
40252;SDS011;25972;51.854;4.534;2023-04-25T11:19:21;0.60;;;0.30;;
40252;SDS011;25972;51.854;4.534;2023-04-25T11:21:47;0.70;;;0.25;;
40252;SDS011;25972;51.854;4.534;2023-04-25T11:24:12;0.65;;;0.43;;
40252;SDS011;25972;51.854;4.534;2023-04-25T11:26:40;2.58;;;0.60;;
40252;SDS011;25972;51.854;4.534;2023-04-25T11:29:09;1.52;;;0.40;;
40252;SDS011;25972;51.854;4.534;2023-04-25T11:31:35;0.47;;;0.40;;
40252;SDS011;25972;51.854;4.534;2023-04-25T11:34:01;0.73;;;0.30;;
40252;SDS011;25972;51.854;4.534;2023-04-25T11:36:27;3.50;;;0.85;;
40252;SDS011;25972;51.854;4.534;2023-04-25T11:38:53;1.02;;;0.47;;
40252;SDS011;25972;51.854;4.534;2023-04-25T11:41:19;0.45;;;0.40;;
40252;SDS011;25972;51.854;4.534;2023-04-25T11:43:47;3.65;;;0.60;;
40252;SDS011;25972;51.854;4.534;2023-04-25T11:46:14;1.45;;;0.40;;
40252;SDS011;25972;51.854;4.534;2023-04-25T11:48:41;4.05;;;0.40;;
40252;SDS011;25972;51.854;4.534;2023-04-25T11:51:07;1.17;;;0.32;;
40252;SDS011;25972;51.854;4.534;2023-04-25T11:53:34;1.30;;;0.50;;
40252;SDS011;25972;51.854;4.534;2023-04-25T11:56:00;1.27;;;0.40;;
40252;SDS011;25972;51.854;4.534;2023-04-25T11:58:26;3.08;;;0.60;;
40252;SDS011;25972;51.854;4.534;2023-04-25T12:00:52;1.02;;;0.40;;
40252;SDS011;25972;51.854;4.534;2023-04-25T12:03:19;1.38;;;0.40;;
40252;SDS011;25972;51.854;4.534;2023-04-25T12:05:45;1.77;;;0.50;;
40252;SDS011;25972;51.854;4.534;2023-04-25T12:08:12;1.05;;;0.47;;
40252;SDS011;25972;51.854;4.534;2023-04-25T12:10:39;1.52;;;0.57;;
40252;SDS011;25972;51.854;4.534;2023-04-25T12:13:19;4.65;;;0.68;;
40252;SDS011;25972;51.854;4.534;2023-04-25T12:15:46;0.50;;;0.38;;
40252;SDS011;25972;51.854;4.534;2023-04-25T12:18:12;0.93;;;0.40;;
40252;SDS011;25972;51.854;4.534;2023-04-25T12:20:38;2.05;;;0.50;;
40252;SDS011;25972;51.854;4.534;2023-04-25T12:23:07;2.65;;;0.50;;
40252;SDS011;25972;51.854;4.534;2023-04-25T12:33:28;0.70;;;0.70;;
40252;SDS011;25972;51.854;4.534;2023-04-25T12:35:55;0.40;;;0.40;;
40252;SDS011;25972;51.854;4.534;2023-04-25T12:38:21;0.52;;;0.40;;
40252;SDS011;25972;51.854;4.534;2023-04-25T12:40:48;2.40;;;0.63;;
40252;SDS011;25972;51.854;4.534;2023-04-25T12:43:14;3.38;;;0.75;;
40252;SDS011;25972;51.854;4.534;2023-04-25T12:45:40;0.40;;;0.40;;
40252;SDS011;25972;51.854;4.534;2023-04-25T12:48:06;1.77;;;0.65;;
40252;SDS011;25972;51.854;4.534;2023-04-25T12:50:31;0.85;;;0.50;;
40252;SDS011;25972;51.854;4.534;2023-04-25T12:52:57;2.05;;;0.73;;
40252;SDS011;25972;51.854;4.534;2023-04-25T12:55:23;2.25;;;0.40;;
40252;SDS011;25972;51.854;4.534;2023-04-25T12:57:49;1.08;;;0.50;;
40252;SDS011;25972;51.854;4.534;2023-04-25T13:00:15;1.83;;;0.80;;
40252;SDS011;25972;51.854;4.534;2023-04-25T13:02:43;3.80;;;0.50;;
40252;SDS011;25972;51.854;4.534;2023-04-25T13:05:09;2.50;;;0.77;;
40252;SDS011;25972;51.854;4.534;2023-04-25T13:07:34;1.23;;;0.40;;
40252;SDS011;25972;51.854;4.534;2023-04-25T13:10:00;1.50;;;0.50;;
40252;SDS011;25972;51.854;4.534;2023-04-25T13:12:27;1.23;;;0.60;;
40252;SDS011;25972;51.854;4.534;2023-04-25T13:14:53;3.10;;;0.82;;
40252;SDS011;25972;51.854;4.534;2023-04-25T13:17:19;4.07;;;1.35;;
40252;SDS011;25972;51.854;4.534;2023-04-25T13:19:45;1.55;;;0.55;;
40252;SDS011;25972;51.854;4.534;2023-04-25T13:22:11;1.13;;;0.70;;
40252;SDS011;25972;51.854;4.534;2023-04-25T13:24:37;1.98;;;0.80;;
40252;SDS011;25972;51.854;4.534;2023-04-25T13:27:03;0.65;;;0.50;;
40252;SDS011;25972;51.854;4.534;2023-04-25T13:29:29;1.67;;;0.80;;
40252;SDS011;25972;51.854;4.534;2023-04-25T13:31:54;1.90;;;0.55;;
40252;SDS011;25972;51.854;4.534;2023-04-25T13:34:20;0.50;;;0.45;;
40252;SDS011;25972;51.854;4.534;2023-04-25T13:36:46;1.38;;;0.60;;
40252;SDS011;25972;51.854;4.534;2023-04-25T13:39:12;1.85;;;0.50;;
40252;SDS011;25972;51.854;4.534;2023-04-25T13:41:37;1.23;;;0.40;;
40252;SDS011;25972;51.854;4.534;2023-04-25T13:44:03;0.63;;;0.50;;
40252;SDS011;25972;51.854;4.534;2023-04-25T13:46:29;0.95;;;0.60;;
40252;SDS011;25972;51.854;4.534;2023-04-25T13:48:55;1.13;;;0.65;;
40252;SDS011;25972;51.854;4.534;2023-04-25T13:51:22;2.72;;;0.70;;
40252;SDS011;25972;51.854;4.534;2023-04-25T13:53:47;3.63;;;0.57;;
40252;SDS011;25972;51.854;4.534;2023-04-25T13:56:13;0.77;;;0.60;;
40252;SDS011;25972;51.854;4.534;2023-04-25T13:58:39;1.35;;;0.43;;
40252;SDS011;25972;51.854;4.534;2023-04-25T14:01:05;0.75;;;0.40;;
40252;SDS011;25972;51.854;4.534;2023-04-25T14:03:31;0.90;;;0.60;;
40252;SDS011;25972;51.854;4.534;2023-04-25T14:05:57;2.67;;;0.38;;
40252;SDS011;25972;51.854;4.534;2023-04-25T14:08:22;1.38;;;0.90;;
40252;SDS011;25972;51.854;4.534;2023-04-25T14:10:48;0.80;;;0.60;;
40252;SDS011;25972;51.854;4.534;2023-04-25T14:13:14;1.00;;;0.52;;
40252;SDS011;25972;51.854;4.534;2023-04-25T14:15:40;0.77;;;0.47;;
40252;SDS011;25972;51.854;4.534;2023-04-25T14:18:06;1.70;;;0.60;;
40252;SDS011;25972;51.854;4.534;2023-04-25T14:20:32;0.82;;;0.32;;
40252;SDS011;25972;51.854;4.534;2023-04-25T14:22:57;2.25;;;0.50;;
40252;SDS011;25972;51.854;4.534;2023-04-25T14:25:24;1.42;;;0.80;;
40252;SDS011;25972;51.854;4.534;2023-04-25T14:27:50;2.22;;;0.50;;
40252;SDS011;25972;51.854;4.534;2023-04-25T14:30:17;1.70;;;0.80;;
40252;SDS011;25972;51.854;4.534;2023-04-25T14:32:44;7.68;;;0.57;;
40252;SDS011;25972;51.854;4.534;2023-04-25T14:35:10;3.22;;;0.80;;
40252;SDS011;25972;51.854;4.534;2023-04-25T14:37:37;2.65;;;0.75;;
40252;SDS011;25972;51.854;4.534;2023-04-25T14:40:03;1.55;;;0.73;;
40252;SDS011;25972;51.854;4.534;2023-04-25T14:42:29;0.77;;;0.30;;
40252;SDS011;25972;51.854;4.534;2023-04-25T14:44:55;0.40;;;0.40;;
40252;SDS011;25972;51.854;4.534;2023-04-25T14:47:22;2.22;;;0.57;;
40252;SDS011;25972;51.854;4.534;2023-04-25T14:49:48;0.35;;;0.35;;
40252;SDS011;25972;51.854;4.534;2023-04-25T14:52:19;0.20;;;0.20;;
40252;SDS011;25972;51.854;4.534;2023-04-25T14:54:46;2.50;;;0.60;;
40252;SDS011;25972;51.854;4.534;2023-04-25T14:57:12;0.70;;;0.40;;
40252;SDS011;25972;51.854;4.534;2023-04-25T14:59:38;1.08;;;0.47;;
40252;SDS011;25972;51.854;4.534;2023-04-25T15:02:05;0.30;;;0.30;;
40252;SDS011;25972;51.854;4.534;2023-04-25T15:04:31;0.43;;;0.43;;
40252;SDS011;25972;51.854;4.534;2023-04-25T15:06:57;3.38;;;0.60;;
40252;SDS011;25972;51.854;4.534;2023-04-25T15:09:22;1.20;;;0.90;;
40252;SDS011;25972;51.854;4.534;2023-04-25T15:11:49;2.38;;;0.57;;
40252;SDS011;25972;51.854;4.534;2023-04-25T15:14:16;0.63;;;0.40;;
40252;SDS011;25972;51.854;4.534;2023-04-25T15:16:42;0.50;;;0.50;;
40252;SDS011;25972;51.854;4.534;2023-04-25T15:19:08;1.17;;;0.73;;